Buoy 41607

sailwx.info

Track history (hours):
 
Tides and Currents Weather Stations Pressure Air Temp Water Temp Dewpoint Dewpoint Depression Visibility Wind Speed Wind Dir Waves Ship Positions

Drifting buoy 41607

Last reported at 2016-Feb-08 02:00 UTC. Time now 2016-Feb-08 04:10 UTC.
Position N 24°53' W 068°37'.

Water temperature 25.2 ° C

Date/timePositionNaut miles runAvg speedWind from/ knotsBaromVisibWave heightAir tempDewpointWater temp
2016-Feb-08 02:00N 24°53' W 068°37'0 0.5 25.2
2016-Feb-08 01:00N 24°53' W 068°38'3 0.9 25.2
2016-Feb-07 22:00N 24°52' W 068°40'1 0.3 25.2
2016-Feb-07 20:00N 24°51' W 068°40'1 0.5 25.3
2016-Feb-07 18:00N 24°51' W 068°41'2 0.6 25.3
2016-Feb-07 15:00N 24°49' W 068°42'1 0.7 25.2
2016-Feb-07 14:00N 24°49' W 068°43'1 0.2 25.2
2016-Feb-07 11:00N 24°48' W 068°43'0 0.3 25.2
2016-Feb-07 10:00N 24°49' W 068°43'2 0.2 25.2
2016-Feb-07 02:00N 24°47' W 068°43'0 0.2 25.3
2016-Feb-07 01:00N 24°47' W 068°43'1 0.3 25.3
2016-Feb-06 22:00N 24°46' W 068°42'0 0.3 25.5
2016-Feb-06 21:00N 24°46' W 068°42'1 0.2 25.5
2016-Feb-06 18:00N 24°45' W 068°42'1 0.3 25.6
2016-Feb-06 15:00N 24°45' W 068°41'0 0.2 25.4
2016-Feb-06 12:00N 24°46' W 068°41'0 0.3 25.2
2016-Feb-06 11:00N 24°46' W 068°41'0 0.1 25.2
2016-Feb-06 09:00N 24°46' W 068°41'0 0.1 25.2
2016-Feb-06 03:00N 24°46' W 068°41'0 0.2 25.2
2016-Feb-06 01:00N 24°46' W 068°41'1 0.2 25.2
2016-Feb-05 22:00N 24°46' W 068°40'2 0.8 25.3
2016-Feb-05 20:00N 24°47' W 068°39'0 0.0 25.4
2016-Feb-05 19:00N 24°47' W 068°39'1 0.6 25.4
2016-Feb-05 18:00N 24°48' W 068°39'1 0.4 25.4
2016-Feb-05 15:00N 24°49' W 068°38'3 0.4 25.1
2016-Feb-05 09:00N 24°50' W 068°36'0 0.4 25.1
2016-Feb-05 08:00N 24°50' W 068°35'2 0.3 25.1
2016-Feb-05 03:00N 24°51' W 068°34'3 0.6 25.1
2016-Feb-04 22:00N 24°51' W 068°30'0 0.3 25.2
2016-Feb-04 21:00N 24°51' W 068°30'1 0.5 25.2
2016-Feb-04 20:00N 24°51' W 068°29'0 0.0 25.2
2016-Feb-04 19:00N 24°51' W 068°29'3 0.7 25.2
2016-Feb-04 15:00N 24°51' W 068°26'0 0.2 25.2
2016-Feb-04 14:00N 24°51' W 068°26'9 0.4 25.2
2016-Feb-03 17:00N 24°49' W 068°16'1 0.2 25.4
2016-Feb-03 11:00N 24°50' W 068°15'5 0.3 25.4
2016-Feb-02 15:00N 24°47' W 068°10'0 0.1 25.5
2016-Feb-02 13:00N 24°47' W 068°10'0 0.2 25.4
2016-Feb-02 11:00N 24°47' W 068°09'0 0.2 25.3
2016-Feb-02 09:00N 24°47' W 068°09'5 0.4 25.3
2016-Feb-01 20:00N 24°46' W 068°15'4 0.8 25.5
2016-Feb-01 15:00N 24°43' W 068°17'0 0.3 25.3
2016-Feb-01 14:00N 24°43' W 068°17'2 0.6 25.2
2016-Feb-01 11:00N 24°41' W 068°17'0 0.0 25.2
2016-Feb-01 10:00N 24°41' W 068°17'0 0.3 25.2
2016-Feb-01 09:00N 24°40' W 068°18'1 0.2 25.2
2016-Feb-01 03:00N 24°40' W 068°17'0 0.4 25.2
2016-Feb-01 02:00N 24°39' W 068°18'1 0.7 25.3
2016-Feb-01 01:00N 24°38' W 068°17'1 0.5 25.3
2016-Jan-31 23:00N 24°38' W 068°17'2 0.4 25.3
2016-Jan-31 18:00N 24°36' W 068°15'2 0.5 25.3
2016-Jan-31 15:00N 24°36' W 068°13'1 0.8 25.4
2016-Jan-31 14:00N 24°35' W 068°13'0 0.4 25.4
2016-Jan-31 13:00N 24°35' W 068°13'0 0.1 25.5
2016-Jan-31 12:00N 24°35' W 068°13'0 0.5 25.5
2016-Jan-31 11:00N 24°35' W 068°12'1 0.5 25.6
2016-Jan-31 08:00N 24°34' W 068°12'2 0.4 25.8
2016-Jan-31 03:00N 24°32' W 068°10'1 0.4 25.9
2016-Jan-31 01:00N 24°31' W 068°10'2 0.8 26.0
2016-Jan-30 23:00N 24°31' W 068°08'0 0.1 26.0
2016-Jan-30 20:00N 24°31' W 068°08'4 0.5 26.0
2016-Jan-30 13:00N 24°35' W 068°07'1 0.1 26.0
2016-Jan-30 08:00N 24°35' W 068°07'5 0.5 25.9
2016-Jan-29 22:00N 24°30' W 068°09'3 0.6 26.1
2016-Jan-29 18:00N 24°29' W 068°12'5 1.2 26.1
2016-Jan-29 14:00N 24°25' W 068°15'0 0.1 26.0
2016-Jan-29 10:00N 24°25' W 068°15'4 3.7 26.0
2016-Jan-29 09:00N 24°21' W 068°15'0 0.0 26.0
2016-Jan-29 07:00N 24°21' W 068°15'5 1.0 26.0
2016-Jan-29 02:00N 24°18' W 068°11'   25.6
Track history (hours):
 
Tides and Currents Weather Stations Pressure Air Temp Water Temp Dewpoint Dewpoint Depression Visibility Wind Speed Wind Dir Waves Ship Positions

Drifting buoy 41607

Last reported at 2016-Feb-08 02:00 UTC. Time now 2016-Feb-08 04:10 UTC.
Position N 24°53' W 068°37'.

Water temperature 25.2 ° C

Date/timePositionNaut miles runAvg speedWind from/ knotsBaromVisibWave heightAir tempDewpointWater temp
2016-Feb-08 02:00N 24°53' W 068°37'0 0.5 25.2
2016-Feb-08 01:00N 24°53' W 068°38'3 0.9 25.2
2016-Feb-07 22:00N 24°52' W 068°40'1 0.3 25.2
2016-Feb-07 20:00N 24°51' W 068°40'1 0.5 25.3
2016-Feb-07 18:00N 24°51' W 068°41'2 0.6 25.3
2016-Feb-07 15:00N 24°49' W 068°42'1 0.7 25.2
2016-Feb-07 14:00N 24°49' W 068°43'1 0.2 25.2
2016-Feb-07 11:00N 24°48' W 068°43'0 0.3 25.2
2016-Feb-07 10:00N 24°49' W 068°43'2 0.2 25.2
2016-Feb-07 02:00N 24°47' W 068°43'0 0.2 25.3
2016-Feb-07 01:00N 24°47' W 068°43'1 0.3 25.3
2016-Feb-06 22:00N 24°46' W 068°42'0 0.3 25.5
2016-Feb-06 21:00N 24°46' W 068°42'1 0.2 25.5
2016-Feb-06 18:00N 24°45' W 068°42'1 0.3 25.6
2016-Feb-06 15:00N 24°45' W 068°41'0 0.2 25.4
2016-Feb-06 12:00N 24°46' W 068°41'0 0.3 25.2
2016-Feb-06 11:00N 24°46' W 068°41'0 0.1 25.2
2016-Feb-06 09:00N 24°46' W 068°41'0 0.1 25.2
2016-Feb-06 03:00N 24°46' W 068°41'0 0.2 25.2
2016-Feb-06 01:00N 24°46' W 068°41'1 0.2 25.2
2016-Feb-05 22:00N 24°46' W 068°40'2 0.8 25.3
2016-Feb-05 20:00N 24°47' W 068°39'0 0.0 25.4
2016-Feb-05 19:00N 24°47' W 068°39'1 0.6 25.4
2016-Feb-05 18:00N 24°48' W 068°39'1 0.4 25.4
2016-Feb-05 15:00N 24°49' W 068°38'3 0.4 25.1
2016-Feb-05 09:00N 24°50' W 068°36'0 0.4 25.1
2016-Feb-05 08:00N 24°50' W 068°35'2 0.3 25.1
2016-Feb-05 03:00N 24°51' W 068°34'3 0.6 25.1
2016-Feb-04 22:00N 24°51' W 068°30'0 0.3 25.2
2016-Feb-04 21:00N 24°51' W 068°30'1 0.5 25.2
2016-Feb-04 20:00N 24°51' W 068°29'0 0.0 25.2
2016-Feb-04 19:00N 24°51' W 068°29'3 0.7 25.2
2016-Feb-04 15:00N 24°51' W 068°26'0 0.2 25.2
2016-Feb-04 14:00N 24°51' W 068°26'9 0.4 25.2
2016-Feb-03 17:00N 24°49' W 068°16'1 0.2 25.4
2016-Feb-03 11:00N 24°50' W 068°15'5 0.3 25.4
2016-Feb-02 15:00N 24°47' W 068°10'0 0.1 25.5
2016-Feb-02 13:00N 24°47' W 068°10'0 0.2 25.4
2016-Feb-02 11:00N 24°47' W 068°09'0 0.2 25.3
2016-Feb-02 09:00N 24°47' W 068°09'5 0.4 25.3
2016-Feb-01 20:00N 24°46' W 068°15'4 0.8 25.5
2016-Feb-01 15:00N 24°43' W 068°17'0 0.3 25.3
2016-Feb-01 14:00N 24°43' W 068°17'2 0.6 25.2
2016-Feb-01 11:00N 24°41' W 068°17'0 0.0 25.2
2016-Feb-01 10:00N 24°41' W 068°17'0 0.3 25.2
2016-Feb-01 09:00N 24°40' W 068°18'1 0.2 25.2
2016-Feb-01 03:00N 24°40' W 068°17'0 0.4 25.2
2016-Feb-01 02:00N 24°39' W 068°18'1 0.7 25.3
2016-Feb-01 01:00N 24°38' W 068°17'1 0.5 25.3
2016-Jan-31 23:00N 24°38' W 068°17'2 0.4 25.3
2016-Jan-31 18:00N 24°36' W 068°15'2 0.5 25.3
2016-Jan-31 15:00N 24°36' W 068°13'1 0.8 25.4
2016-Jan-31 14:00N 24°35' W 068°13'0 0.4 25.4
2016-Jan-31 13:00N 24°35' W 068°13'0 0.1 25.5
2016-Jan-31 12:00N 24°35' W 068°13'0 0.5 25.5
2016-Jan-31 11:00N 24°35' W 068°12'1 0.5 25.6
2016-Jan-31 08:00N 24°34' W 068°12'2 0.4 25.8
2016-Jan-31 03:00N 24°32' W 068°10'1 0.4 25.9
2016-Jan-31 01:00N 24°31' W 068°10'2 0.8 26.0
2016-Jan-30 23:00N 24°31' W 068°08'0 0.1 26.0
2016-Jan-30 20:00N 24°31' W 068°08'4 0.5 26.0
2016-Jan-30 13:00N 24°35' W 068°07'1 0.1 26.0
2016-Jan-30 08:00N 24°35' W 068°07'5 0.5 25.9
2016-Jan-29 22:00N 24°30' W 068°09'3 0.6 26.1
2016-Jan-29 18:00N 24°29' W 068°12'5 1.2 26.1
2016-Jan-29 14:00N 24°25' W 068°15'0 0.1 26.0
2016-Jan-29 10:00N 24°25' W 068°15'4 3.7 26.0
2016-Jan-29 09:00N 24°21' W 068°15'0 0.0 26.0
2016-Jan-29 07:00N 24°21' W 068°15'5 1.0 26.0
2016-Jan-29 02:00N 24°18' W 068°11'   25.6

Dump ship's entire track history